sensor_id;sensor_type;location;lat;lon;timestamp;P1;durP1;ratioP1;P2;durP2;ratioP2
21432;SDS011;18592;49.708;10.900;2023-05-09T00:01:44;4.10;;;3.20;;
21432;SDS011;18592;49.708;10.900;2023-05-09T00:03:46;3.55;;;3.05;;
21432;SDS011;18592;49.708;10.900;2023-05-09T00:05:49;3.35;;;3.00;;
21432;SDS011;18592;49.708;10.900;2023-05-09T00:07:51;3.47;;;2.47;;
21432;SDS011;18592;49.708;10.900;2023-05-09T00:09:53;3.20;;;2.90;;
21432;SDS011;18592;49.708;10.900;2023-05-09T00:11:59;3.20;;;2.80;;
21432;SDS011;18592;49.708;10.900;2023-05-09T00:14:01;3.45;;;3.15;;
21432;SDS011;18592;49.708;10.900;2023-05-09T00:16:03;3.20;;;2.95;;
21432;SDS011;18592;49.708;10.900;2023-05-09T00:18:10;3.22;;;2.92;;
21432;SDS011;18592;49.708;10.900;2023-05-09T00:20:12;3.30;;;3.00;;
21432;SDS011;18592;49.708;10.900;2023-05-09T00:22:15;3.10;;;2.80;;
21432;SDS011;18592;49.708;10.900;2023-05-09T00:24:22;3.10;;;2.85;;
21432;SDS011;18592;49.708;10.900;2023-05-09T00:26:24;4.10;;;3.70;;
21432;SDS011;18592;49.708;10.900;2023-05-09T00:28:26;3.60;;;3.30;;
21432;SDS011;18592;49.708;10.900;2023-05-09T00:30:27;3.20;;;2.97;;
21432;SDS011;18592;49.708;10.900;2023-05-09T00:32:29;3.15;;;2.95;;
21432;SDS011;18592;49.708;10.900;2023-05-09T00:34:32;3.78;;;3.47;;
21432;SDS011;18592;49.708;10.900;2023-05-09T00:36:33;3.47;;;3.17;;
21432;SDS011;18592;49.708;10.900;2023-05-09T00:38:40;3.65;;;3.35;;
21432;SDS011;18592;49.708;10.900;2023-05-09T00:40:42;3.22;;;2.92;;
21432;SDS011;18592;49.708;10.900;2023-05-09T00:42:46;3.33;;;2.85;;
21432;SDS011;18592;49.708;10.900;2023-05-09T00:44:48;3.58;;;3.28;;
21432;SDS011;18592;49.708;10.900;2023-05-09T00:46:49;3.38;;;3.08;;
21432;SDS011;18592;49.708;10.900;2023-05-09T00:48:51;3.60;;;3.30;;
21432;SDS011;18592;49.708;10.900;2023-05-09T00:51:05;3.25;;;2.97;;
21432;SDS011;18592;49.708;10.900;2023-05-09T00:53:07;3.10;;;2.80;;
21432;SDS011;18592;49.708;10.900;2023-05-09T00:55:10;3.80;;;3.33;;
21432;SDS011;18592;49.708;10.900;2023-05-09T00:57:12;3.50;;;3.20;;
21432;SDS011;18592;49.708;10.900;2023-05-09T00:59:14;3.35;;;3.05;;
21432;SDS011;18592;49.708;10.900;2023-05-09T01:01:20;3.30;;;3.00;;
21432;SDS011;18592;49.708;10.900;2023-05-09T01:03:25;3.30;;;3.00;;
21432;SDS011;18592;49.708;10.900;2023-05-09T01:05:51;3.53;;;3.22;;
21432;SDS011;18592;49.708;10.900;2023-05-09T01:08:12;3.67;;;3.35;;
21432;SDS011;18592;49.708;10.900;2023-05-09T01:12:42;3.70;;;3.38;;
21432;SDS011;18592;49.708;10.900;2023-05-09T01:15:34;3.70;;;3.33;;
21432;SDS011;18592;49.708;10.900;2023-05-09T01:17:36;3.75;;;3.38;;
21432;SDS011;18592;49.708;10.900;2023-05-09T01:22:03;3.80;;;3.40;;
21432;SDS011;18592;49.708;10.900;2023-05-09T01:24:18;3.40;;;3.10;;
21432;SDS011;18592;49.708;10.900;2023-05-09T01:28:52;3.50;;;3.20;;
21432;SDS011;18592;49.708;10.900;2023-05-09T01:31:05;3.50;;;3.20;;
21432;SDS011;18592;49.708;10.900;2023-05-09T01:33:09;3.45;;;3.08;;
21432;SDS011;18592;49.708;10.900;2023-05-09T01:35:19;4.25;;;3.85;;
21432;SDS011;18592;49.708;10.900;2023-05-09T01:37:30;3.85;;;3.40;;
21432;SDS011;18592;49.708;10.900;2023-05-09T01:39:37;4.32;;;3.20;;
21432;SDS011;18592;49.708;10.900;2023-05-09T01:41:41;4.82;;;3.50;;
21432;SDS011;18592;49.708;10.900;2023-05-09T01:43:44;4.03;;;3.65;;
21432;SDS011;18592;49.708;10.900;2023-05-09T01:45:47;3.45;;;3.15;;
21432;SDS011;18592;49.708;10.900;2023-05-09T01:47:51;3.35;;;2.97;;
21432;SDS011;18592;49.708;10.900;2023-05-09T01:49:54;3.28;;;2.97;;
21432;SDS011;18592;49.708;10.900;2023-05-09T01:52:07;3.63;;;3.33;;
21432;SDS011;18592;49.708;10.900;2023-05-09T01:54:11;4.60;;;3.30;;
21432;SDS011;18592;49.708;10.900;2023-05-09T01:56:14;3.35;;;3.05;;
21432;SDS011;18592;49.708;10.900;2023-05-09T01:58:17;3.63;;;3.30;;
21432;SDS011;18592;49.708;10.900;2023-05-09T02:00:22;3.38;;;3.08;;
21432;SDS011;18592;49.708;10.900;2023-05-09T02:02:28;3.78;;;3.38;;
21432;SDS011;18592;49.708;10.900;2023-05-09T02:04:30;3.78;;;3.40;;
21432;SDS011;18592;49.708;10.900;2023-05-09T02:06:32;3.60;;;3.30;;
21432;SDS011;18592;49.708;10.900;2023-05-09T02:08:36;3.75;;;3.45;;
21432;SDS011;18592;49.708;10.900;2023-05-09T02:10:40;3.08;;;2.78;;
21432;SDS011;18592;49.708;10.900;2023-05-09T02:12:45;4.47;;;3.42;;
21432;SDS011;18592;49.708;10.900;2023-05-09T02:14:46;3.60;;;3.05;;
21432;SDS011;18592;49.708;10.900;2023-05-09T02:16:48;3.67;;;3.38;;
21432;SDS011;18592;49.708;10.900;2023-05-09T02:18:50;3.65;;;3.10;;
21432;SDS011;18592;49.708;10.900;2023-05-09T02:20:52;3.40;;;3.10;;
21432;SDS011;18592;49.708;10.900;2023-05-09T02:22:54;3.78;;;3.25;;
21432;SDS011;18592;49.708;10.900;2023-05-09T02:24:55;3.28;;;2.97;;
21432;SDS011;18592;49.708;10.900;2023-05-09T02:26:57;3.95;;;3.08;;
21432;SDS011;18592;49.708;10.900;2023-05-09T02:28:59;3.30;;;3.00;;
21432;SDS011;18592;49.708;10.900;2023-05-09T02:31:02;3.90;;;3.50;;
21432;SDS011;18592;49.708;10.900;2023-05-09T02:33:07;3.67;;;3.28;;
21432;SDS011;18592;49.708;10.900;2023-05-09T02:35:15;4.68;;;3.10;;
21432;SDS011;18592;49.708;10.900;2023-05-09T02:37:19;3.40;;;3.10;;
21432;SDS011;18592;49.708;10.900;2023-05-09T02:39:24;3.58;;;3.28;;
21432;SDS011;18592;49.708;10.900;2023-05-09T02:41:28;4.30;;;3.15;;
21432;SDS011;18592;49.708;10.900;2023-05-09T02:43:31;3.42;;;3.13;;
21432;SDS011;18592;49.708;10.900;2023-05-09T02:45:33;3.78;;;3.38;;
21432;SDS011;18592;49.708;10.900;2023-05-09T02:47:36;3.97;;;3.22;;
21432;SDS011;18592;49.708;10.900;2023-05-09T02:49:38;3.80;;;3.50;;
21432;SDS011;18592;49.708;10.900;2023-05-09T02:51:40;3.45;;;3.15;;
21432;SDS011;18592;49.708;10.900;2023-05-09T02:53:43;3.45;;;3.15;;
21432;SDS011;18592;49.708;10.900;2023-05-09T02:55:45;4.20;;;3.80;;
21432;SDS011;18592;49.708;10.900;2023-05-09T02:57:47;3.88;;;3.55;;
21432;SDS011;18592;49.708;10.900;2023-05-09T03:00:02;4.03;;;3.42;;
21432;SDS011;18592;49.708;10.900;2023-05-09T03:02:04;3.90;;;3.47;;
21432;SDS011;18592;49.708;10.900;2023-05-09T03:04:07;4.35;;;3.95;;
21432;SDS011;18592;49.708;10.900;2023-05-09T03:06:11;5.38;;;3.65;;
21432;SDS011;18592;49.708;10.900;2023-05-09T03:08:14;3.90;;;3.50;;
21432;SDS011;18592;49.708;10.900;2023-05-09T03:10:17;3.65;;;3.35;;
21432;SDS011;18592;49.708;10.900;2023-05-09T03:12:21;4.22;;;3.83;;
21432;SDS011;18592;49.708;10.900;2023-05-09T03:14:27;4.55;;;3.95;;
21432;SDS011;18592;49.708;10.900;2023-05-09T03:16:29;3.80;;;3.50;;
21432;SDS011;18592;49.708;10.900;2023-05-09T03:18:32;3.50;;;3.20;;
21432;SDS011;18592;49.708;10.900;2023-05-09T03:20:35;4.43;;;3.45;;
21432;SDS011;18592;49.708;10.900;2023-05-09T03:22:37;4.43;;;3.90;;
21432;SDS011;18592;49.708;10.900;2023-05-09T03:24:42;4.28;;;3.50;;
21432;SDS011;18592;49.708;10.900;2023-05-09T03:26:44;4.00;;;3.60;;
21432;SDS011;18592;49.708;10.900;2023-05-09T03:28:45;3.92;;;3.50;;
21432;SDS011;18592;49.708;10.900;2023-05-09T03:30:48;4.07;;;3.67;;
21432;SDS011;18592;49.708;10.900;2023-05-09T03:32:53;4.93;;;4.05;;
21432;SDS011;18592;49.708;10.900;2023-05-09T03:34:54;5.32;;;3.80;;
21432;SDS011;18592;49.708;10.900;2023-05-09T03:37:00;4.45;;;4.05;;
21432;SDS011;18592;49.708;10.900;2023-05-09T03:39:02;4.13;;;3.72;;
21432;SDS011;18592;49.708;10.900;2023-05-09T03:41:04;3.75;;;3.45;;
21432;SDS011;18592;49.708;10.900;2023-05-09T03:43:06;4.00;;;3.60;;
21432;SDS011;18592;49.708;10.900;2023-05-09T03:45:10;4.45;;;4.05;;
21432;SDS011;18592;49.708;10.900;2023-05-09T03:47:12;4.03;;;3.63;;
21432;SDS011;18592;49.708;10.900;2023-05-09T03:49:14;4.30;;;3.90;;
21432;SDS011;18592;49.708;10.900;2023-05-09T03:51:16;4.60;;;3.92;;
21432;SDS011;18592;49.708;10.900;2023-05-09T03:53:18;4.20;;;3.80;;
21432;SDS011;18592;49.708;10.900;2023-05-09T03:55:25;4.07;;;3.67;;
21432;SDS011;18592;49.708;10.900;2023-05-09T03:57:27;4.10;;;3.70;;
21432;SDS011;18592;49.708;10.900;2023-05-09T03:59:30;5.28;;;4.00;;
21432;SDS011;18592;49.708;10.900;2023-05-09T04:01:33;3.85;;;3.50;;
21432;SDS011;18592;49.708;10.900;2023-05-09T04:03:36;4.90;;;4.40;;
21432;SDS011;18592;49.708;10.900;2023-05-09T04:05:39;4.38;;;3.97;;
21432;SDS011;18592;49.708;10.900;2023-05-09T04:07:46;4.43;;;4.03;;
21432;SDS011;18592;49.708;10.900;2023-05-09T04:09:49;4.50;;;3.42;;
21432;SDS011;18592;49.708;10.900;2023-05-09T04:11:50;3.95;;;3.65;;
21432;SDS011;18592;49.708;10.900;2023-05-09T04:13:53;4.78;;;3.97;;
21432;SDS011;18592;49.708;10.900;2023-05-09T04:15:59;4.20;;;3.80;;
21432;SDS011;18592;49.708;10.900;2023-05-09T04:18:04;4.78;;;3.92;;
21432;SDS011;18592;49.708;10.900;2023-05-09T04:20:09;4.38;;;3.97;;
21432;SDS011;18592;49.708;10.900;2023-05-09T04:22:12;4.13;;;3.80;;
21432;SDS011;18592;49.708;10.900;2023-05-09T04:24:14;4.60;;;4.20;;
21432;SDS011;18592;49.708;10.900;2023-05-09T04:26:18;4.32;;;3.90;;
21432;SDS011;18592;49.708;10.900;2023-05-09T04:28:26;4.28;;;3.90;;
21432;SDS011;18592;49.708;10.900;2023-05-09T04:30:29;4.50;;;4.07;;
21432;SDS011;18592;49.708;10.900;2023-05-09T04:32:32;4.55;;;3.97;;
21432;SDS011;18592;49.708;10.900;2023-05-09T04:34:34;4.50;;;3.97;;
21432;SDS011;18592;49.708;10.900;2023-05-09T04:36:42;4.03;;;3.63;;
21432;SDS011;18592;49.708;10.900;2023-05-09T04:38:43;5.68;;;4.38;;
21432;SDS011;18592;49.708;10.900;2023-05-09T04:40:48;4.32;;;4.00;;
21432;SDS011;18592;49.708;10.900;2023-05-09T04:42:50;4.68;;;4.15;;
21432;SDS011;18592;49.708;10.900;2023-05-09T04:44:54;5.65;;;4.32;;
21432;SDS011;18592;49.708;10.900;2023-05-09T04:46:56;4.35;;;3.95;;
21432;SDS011;18592;49.708;10.900;2023-05-09T04:48:58;4.82;;;4.32;;
21432;SDS011;18592;49.708;10.900;2023-05-09T04:51:00;5.05;;;4.57;;
21432;SDS011;18592;49.708;10.900;2023-05-09T04:53:01;4.30;;;3.90;;
21432;SDS011;18592;49.708;10.900;2023-05-09T04:55:03;4.35;;;3.95;;
21432;SDS011;18592;49.708;10.900;2023-05-09T04:57:11;4.47;;;4.03;;
21432;SDS011;18592;49.708;10.900;2023-05-09T04:59:21;4.55;;;4.13;;
21432;SDS011;18592;49.708;10.900;2023-05-09T05:01:24;4.50;;;4.10;;
21432;SDS011;18592;49.708;10.900;2023-05-09T05:03:31;5.10;;;4.60;;
21432;SDS011;18592;49.708;10.900;2023-05-09T05:05:36;4.88;;;4.38;;
21432;SDS011;18592;49.708;10.900;2023-05-09T05:07:38;4.65;;;4.25;;
21432;SDS011;18592;49.708;10.900;2023-05-09T05:09:41;4.75;;;4.25;;
21432;SDS011;18592;49.708;10.900;2023-05-09T05:11:43;5.00;;;4.50;;
21432;SDS011;18592;49.708;10.900;2023-05-09T05:13:59;5.25;;;4.75;;
21432;SDS011;18592;49.708;10.900;2023-05-09T05:16:00;4.68;;;4.20;;
21432;SDS011;18592;49.708;10.900;2023-05-09T05:18:02;4.80;;;4.30;;
21432;SDS011;18592;49.708;10.900;2023-05-09T05:20:10;5.28;;;4.75;;
21432;SDS011;18592;49.708;10.900;2023-05-09T05:22:17;6.20;;;4.75;;
21432;SDS011;18592;49.708;10.900;2023-05-09T05:24:19;5.45;;;4.88;;
21432;SDS011;18592;49.708;10.900;2023-05-09T05:26:21;5.15;;;4.65;;
21432;SDS011;18592;49.708;10.900;2023-05-09T05:28:29;5.05;;;4.63;;
21432;SDS011;18592;49.708;10.900;2023-05-09T05:30:33;5.50;;;5.00;;
21432;SDS011;18592;49.708;10.900;2023-05-09T05:32:36;6.45;;;5.20;;
21432;SDS011;18592;49.708;10.900;2023-05-09T05:34:37;7.53;;;5.10;;
21432;SDS011;18592;49.708;10.900;2023-05-09T05:36:39;5.75;;;4.75;;
21432;SDS011;18592;49.708;10.900;2023-05-09T05:38:41;5.15;;;4.63;;
21432;SDS011;18592;49.708;10.900;2023-05-09T05:40:43;5.90;;;5.40;;
21432;SDS011;18592;49.708;10.900;2023-05-09T05:42:45;5.45;;;4.88;;
21432;SDS011;18592;49.708;10.900;2023-05-09T05:44:47;5.18;;;4.68;;
21432;SDS011;18592;49.708;10.900;2023-05-09T05:46:50;5.45;;;4.20;;
21432;SDS011;18592;49.708;10.900;2023-05-09T05:48:55;6.53;;;4.68;;
21432;SDS011;18592;49.708;10.900;2023-05-09T05:50:59;5.25;;;4.75;;
21432;SDS011;18592;49.708;10.900;2023-05-09T05:53:04;4.60;;;4.20;;
21432;SDS011;18592;49.708;10.900;2023-05-09T05:55:07;4.40;;;4.00;;
21432;SDS011;18592;49.708;10.900;2023-05-09T05:57:12;4.78;;;4.35;;
21432;SDS011;18592;49.708;10.900;2023-05-09T05:59:14;6.22;;;4.20;;
21432;SDS011;18592;49.708;10.900;2023-05-09T06:01:25;4.93;;;4.45;;
21432;SDS011;18592;49.708;10.900;2023-05-09T06:03:29;4.20;;;3.80;;
21432;SDS011;18592;49.708;10.900;2023-05-09T06:05:37;4.20;;;3.80;;
21432;SDS011;18592;49.708;10.900;2023-05-09T06:07:45;4.40;;;4.00;;
21432;SDS011;18592;49.708;10.900;2023-05-09T06:09:47;5.38;;;4.88;;
21432;SDS011;18592;49.708;10.900;2023-05-09T06:11:48;5.47;;;4.20;;
21432;SDS011;18592;49.708;10.900;2023-05-09T06:13:50;4.75;;;4.35;;
21432;SDS011;18592;49.708;10.900;2023-05-09T06:15:55;5.60;;;4.60;;
21432;SDS011;18592;49.708;10.900;2023-05-09T06:18:18;4.68;;;4.28;;
21432;SDS011;18592;49.708;10.900;2023-05-09T06:20:19;6.13;;;4.55;;
21432;SDS011;18592;49.708;10.900;2023-05-09T06:22:22;5.07;;;4.25;;
21432;SDS011;18592;49.708;10.900;2023-05-09T06:24:23;4.88;;;4.07;;
21432;SDS011;18592;49.708;10.900;2023-05-09T06:26:37;4.68;;;4.22;;
21432;SDS011;18592;49.708;10.900;2023-05-09T06:28:38;5.20;;;4.50;;
21432;SDS011;18592;49.708;10.900;2023-05-09T06:30:40;4.53;;;3.97;;
21432;SDS011;18592;49.708;10.900;2023-05-09T06:32:41;4.38;;;3.97;;
21432;SDS011;18592;49.708;10.900;2023-05-09T06:34:43;4.43;;;4.00;;
21432;SDS011;18592;49.708;10.900;2023-05-09T06:36:44;4.60;;;4.20;;
21432;SDS011;18592;49.708;10.900;2023-05-09T06:38:46;4.50;;;4.10;;
21432;SDS011;18592;49.708;10.900;2023-05-09T06:40:50;4.28;;;3.88;;
21432;SDS011;18592;49.708;10.900;2023-05-09T06:42:51;4.63;;;4.10;;
21432;SDS011;18592;49.708;10.900;2023-05-09T06:44:53;4.80;;;4.35;;
21432;SDS011;18592;49.708;10.900;2023-05-09T06:46:55;6.00;;;4.30;;
21432;SDS011;18592;49.708;10.900;2023-05-09T06:48:57;4.68;;;4.10;;
21432;SDS011;18592;49.708;10.900;2023-05-09T06:50:59;5.15;;;4.65;;
21432;SDS011;18592;49.708;10.900;2023-05-09T06:53:01;4.35;;;3.95;;
21432;SDS011;18592;49.708;10.900;2023-05-09T06:55:06;5.13;;;4.55;;
21432;SDS011;18592;49.708;10.900;2023-05-09T06:57:08;5.13;;;4.03;;
21432;SDS011;18592;49.708;10.900;2023-05-09T06:59:12;4.50;;;4.05;;
21432;SDS011;18592;49.708;10.900;2023-05-09T07:01:14;4.03;;;3.60;;
21432;SDS011;18592;49.708;10.900;2023-05-09T07:03:18;4.35;;;3.95;;
21432;SDS011;18592;49.708;10.900;2023-05-09T07:05:22;5.15;;;4.05;;
21432;SDS011;18592;49.708;10.900;2023-05-09T07:07:24;4.22;;;3.78;;
21432;SDS011;18592;49.708;10.900;2023-05-09T07:09:25;4.47;;;3.88;;
21432;SDS011;18592;49.708;10.900;2023-05-09T07:11:33;4.15;;;3.75;;
21432;SDS011;18592;49.708;10.900;2023-05-09T07:13:38;3.63;;;3.33;;
21432;SDS011;18592;49.708;10.900;2023-05-09T07:15:39;3.92;;;3.53;;
21432;SDS011;18592;49.708;10.900;2023-05-09T07:17:43;3.78;;;3.38;;
21432;SDS011;18592;49.708;10.900;2023-05-09T07:19:45;3.88;;;3.13;;
21432;SDS011;18592;49.708;10.900;2023-05-09T07:21:46;3.78;;;3.47;;
21432;SDS011;18592;49.708;10.900;2023-05-09T07:23:48;4.55;;;3.30;;
21432;SDS011;18592;49.708;10.900;2023-05-09T07:25:55;4.20;;;3.05;;
21432;SDS011;18592;49.708;10.900;2023-05-09T07:27:57;4.28;;;3.20;;
21432;SDS011;18592;49.708;10.900;2023-05-09T07:30:03;3.70;;;3.40;;
21432;SDS011;18592;49.708;10.900;2023-05-09T07:32:12;4.43;;;3.17;;
21432;SDS011;18592;49.708;10.900;2023-05-09T07:34:14;4.07;;;3.67;;
21432;SDS011;18592;49.708;10.900;2023-05-09T07:36:16;4.03;;;3.30;;
21432;SDS011;18592;49.708;10.900;2023-05-09T07:38:18;3.70;;;3.40;;
21432;SDS011;18592;49.708;10.900;2023-05-09T07:40:20;4.35;;;3.53;;
21432;SDS011;18592;49.708;10.900;2023-05-09T07:42:21;3.38;;;3.08;;
21432;SDS011;18592;49.708;10.900;2023-05-09T07:44:23;3.92;;;3.33;;
21432;SDS011;18592;49.708;10.900;2023-05-09T07:46:24;3.53;;;3.22;;
21432;SDS011;18592;49.708;10.900;2023-05-09T07:48:29;4.22;;;3.83;;
21432;SDS011;18592;49.708;10.900;2023-05-09T07:50:33;4.25;;;3.85;;
21432;SDS011;18592;49.708;10.900;2023-05-09T07:52:35;3.50;;;3.20;;
21432;SDS011;18592;49.708;10.900;2023-05-09T07:54:39;4.20;;;3.90;;
21432;SDS011;18592;49.708;10.900;2023-05-09T07:56:41;3.78;;;3.38;;
21432;SDS011;18592;49.708;10.900;2023-05-09T07:58:43;3.90;;;3.55;;
21432;SDS011;18592;49.708;10.900;2023-05-09T08:00:44;3.65;;;3.25;;
21432;SDS011;18592;49.708;10.900;2023-05-09T08:02:46;3.42;;;3.05;;
21432;SDS011;18592;49.708;10.900;2023-05-09T08:04:48;4.68;;;3.10;;
21432;SDS011;18592;49.708;10.900;2023-05-09T08:06:49;4.50;;;3.20;;
21432;SDS011;18592;49.708;10.900;2023-05-09T08:08:51;3.83;;;3.25;;
21432;SDS011;18592;49.708;10.900;2023-05-09T08:10:53;3.40;;;3.10;;
21432;SDS011;18592;49.708;10.900;2023-05-09T08:12:55;3.45;;;3.15;;
21432;SDS011;18592;49.708;10.900;2023-05-09T08:14:59;3.50;;;3.20;;
21432;SDS011;18592;49.708;10.900;2023-05-09T08:17:01;3.28;;;3.03;;
21432;SDS011;18592;49.708;10.900;2023-05-09T08:19:05;2.90;;;2.70;;
21432;SDS011;18592;49.708;10.900;2023-05-09T08:21:06;3.20;;;2.90;;
21432;SDS011;18592;49.708;10.900;2023-05-09T08:23:11;4.30;;;3.17;;
21432;SDS011;18592;49.708;10.900;2023-05-09T08:25:12;3.22;;;2.92;;
21432;SDS011;18592;49.708;10.900;2023-05-09T08:27:17;3.25;;;2.95;;
21432;SDS011;18592;49.708;10.900;2023-05-09T08:29:20;2.92;;;2.63;;
21432;SDS011;18592;49.708;10.900;2023-05-09T08:31:25;4.07;;;2.90;;
21432;SDS011;18592;49.708;10.900;2023-05-09T08:33:27;3.85;;;3.13;;
21432;SDS011;18592;49.708;10.900;2023-05-09T08:35:28;3.03;;;2.72;;
21432;SDS011;18592;49.708;10.900;2023-05-09T08:37:31;2.90;;;2.60;;
21432;SDS011;18592;49.708;10.900;2023-05-09T08:39:32;3.17;;;2.97;;
21432;SDS011;18592;49.708;10.900;2023-05-09T08:41:37;3.67;;;3.00;;
21432;SDS011;18592;49.708;10.900;2023-05-09T08:43:39;2.97;;;2.67;;
21432;SDS011;18592;49.708;10.900;2023-05-09T08:45:44;3.15;;;2.85;;
21432;SDS011;18592;49.708;10.900;2023-05-09T08:47:50;3.58;;;2.83;;
21432;SDS011;18592;49.708;10.900;2023-05-09T08:49:56;2.85;;;2.65;;
21432;SDS011;18592;49.708;10.900;2023-05-09T08:52:00;3.17;;;2.83;;
21432;SDS011;18592;49.708;10.900;2023-05-09T08:54:05;3.20;;;2.90;;
21432;SDS011;18592;49.708;10.900;2023-05-09T08:56:11;3.60;;;3.00;;
21432;SDS011;18592;49.708;10.900;2023-05-09T08:58:13;4.35;;;2.90;;
21432;SDS011;18592;49.708;10.900;2023-05-09T09:00:19;3.50;;;3.20;;
21432;SDS011;18592;49.708;10.900;2023-05-09T09:02:22;5.47;;;2.90;;
21432;SDS011;18592;49.708;10.900;2023-05-09T09:04:23;3.60;;;2.65;;
21432;SDS011;18592;49.708;10.900;2023-05-09T09:06:25;3.20;;;2.90;;
21432;SDS011;18592;49.708;10.900;2023-05-09T09:08:30;3.17;;;2.90;;
21432;SDS011;18592;49.708;10.900;2023-05-09T09:10:31;3.17;;;2.85;;
21432;SDS011;18592;49.708;10.900;2023-05-09T09:12:34;3.08;;;2.78;;
21432;SDS011;18592;49.708;10.900;2023-05-09T09:14:38;3.15;;;2.85;;
21432;SDS011;18592;49.708;10.900;2023-05-09T09:16:46;2.70;;;2.50;;
21432;SDS011;18592;49.708;10.900;2023-05-09T09:18:53;2.90;;;2.70;;
21432;SDS011;18592;49.708;10.900;2023-05-09T09:21:00;2.30;;;2.13;;
21432;SDS011;18592;49.708;10.900;2023-05-09T09:23:07;2.78;;;2.22;;
21432;SDS011;18592;49.708;10.900;2023-05-09T09:25:12;3.00;;;2.70;;
21432;SDS011;18592;49.708;10.900;2023-05-09T09:27:16;3.17;;;2.55;;
21432;SDS011;18592;49.708;10.900;2023-05-09T09:29:19;2.60;;;2.35;;
21432;SDS011;18592;49.708;10.900;2023-05-09T09:31:24;2.90;;;2.70;;
21432;SDS011;18592;49.708;10.900;2023-05-09T09:33:30;2.45;;;2.25;;
21432;SDS011;18592;49.708;10.900;2023-05-09T09:35:36;2.88;;;2.47;;
21432;SDS011;18592;49.708;10.900;2023-05-09T09:37:39;2.72;;;2.53;;
21432;SDS011;18592;49.708;10.900;2023-05-09T09:39:52;2.53;;;2.35;;
21432;SDS011;18592;49.708;10.900;2023-05-09T09:42:03;3.00;;;2.70;;
21432;SDS011;18592;49.708;10.900;2023-05-09T09:44:14;2.60;;;2.40;;
21432;SDS011;18592;49.708;10.900;2023-05-09T09:46:17;2.35;;;2.15;;
21432;SDS011;18592;49.708;10.900;2023-05-09T09:48:23;2.70;;;2.50;;
21432;SDS011;18592;49.708;10.900;2023-05-09T09:50:25;2.80;;;2.60;;
21432;SDS011;18592;49.708;10.900;2023-05-09T09:52:27;2.88;;;2.50;;
21432;SDS011;18592;49.708;10.900;2023-05-09T09:54:29;2.60;;;2.40;;
21432;SDS011;18592;49.708;10.900;2023-05-09T09:56:37;2.45;;;2.25;;
21432;SDS011;18592;49.708;10.900;2023-05-09T09:58:43;2.60;;;2.40;;
21432;SDS011;18592;49.708;10.900;2023-05-09T10:00:47;2.70;;;2.50;;
21432;SDS011;18592;49.708;10.900;2023-05-09T10:03:05;3.00;;;2.53;;
21432;SDS011;18592;49.708;10.900;2023-05-09T10:05:24;2.63;;;2.42;;
21432;SDS011;18592;49.708;10.900;2023-05-09T10:07:31;2.58;;;2.38;;
21432;SDS011;18592;49.708;10.900;2023-05-09T10:09:34;2.60;;;2.40;;
21432;SDS011;18592;49.708;10.900;2023-05-09T10:11:38;2.72;;;2.53;;
21432;SDS011;18592;49.708;10.900;2023-05-09T10:13:49;2.50;;;2.30;;
21432;SDS011;18592;49.708;10.900;2023-05-09T10:15:50;2.65;;;2.45;;
21432;SDS011;18592;49.708;10.900;2023-05-09T10:17:58;2.88;;;2.58;;
21432;SDS011;18592;49.708;10.900;2023-05-09T10:20:03;2.40;;;2.20;;
21432;SDS011;18592;49.708;10.900;2023-05-09T10:22:07;2.70;;;2.00;;
21432;SDS011;18592;49.708;10.900;2023-05-09T10:24:13;2.50;;;2.30;;
21432;SDS011;18592;49.708;10.900;2023-05-09T10:26:17;2.60;;;2.40;;
21432;SDS011;18592;49.708;10.900;2023-05-09T10:28:30;2.30;;;2.05;;
21432;SDS011;18592;49.708;10.900;2023-05-09T10:30:34;2.35;;;2.10;;
21432;SDS011;18592;49.708;10.900;2023-05-09T10:32:41;2.55;;;2.35;;
21432;SDS011;18592;49.708;10.900;2023-05-09T10:34:50;2.55;;;2.33;;
21432;SDS011;18592;49.708;10.900;2023-05-09T10:36:55;2.85;;;2.42;;
21432;SDS011;18592;49.708;10.900;2023-05-09T10:38:58;2.15;;;2.03;;
21432;SDS011;18592;49.708;10.900;2023-05-09T10:41:01;3.17;;;2.20;;
21432;SDS011;18592;49.708;10.900;2023-05-09T10:43:09;2.40;;;2.20;;
21432;SDS011;18592;49.708;10.900;2023-05-09T10:45:10;2.28;;;2.05;;
21432;SDS011;18592;49.708;10.900;2023-05-09T10:47:14;2.33;;;2.10;;
21432;SDS011;18592;49.708;10.900;2023-05-09T10:49:16;2.38;;;2.10;;
21432;SDS011;18592;49.708;10.900;2023-05-09T10:51:21;3.10;;;2.22;;
21432;SDS011;18592;49.708;10.900;2023-05-09T10:53:35;2.53;;;2.25;;
21432;SDS011;18592;49.708;10.900;2023-05-09T10:57:55;2.25;;;2.05;;
21432;SDS011;18592;49.708;10.900;2023-05-09T11:00:07;2.25;;;2.05;;
21432;SDS011;18592;49.708;10.900;2023-05-09T11:02:11;2.10;;;2.00;;
21432;SDS011;18592;49.708;10.900;2023-05-09T11:04:15;2.45;;;2.25;;
21432;SDS011;18592;49.708;10.900;2023-05-09T11:08:52;2.28;;;2.08;;
21432;SDS011;18592;49.708;10.900;2023-05-09T11:10:55;2.08;;;1.90;;
21432;SDS011;18592;49.708;10.900;2023-05-09T11:12:58;2.00;;;1.83;;
21432;SDS011;18592;49.708;10.900;2023-05-09T11:15:05;2.97;;;1.95;;
21432;SDS011;18592;49.708;10.900;2023-05-09T11:17:09;3.92;;;2.28;;
21432;SDS011;18592;49.708;10.900;2023-05-09T11:19:32;2.28;;;1.85;;
21432;SDS011;18592;49.708;10.900;2023-05-09T11:21:40;2.90;;;1.90;;
21432;SDS011;18592;49.708;10.900;2023-05-09T11:24:02;2.00;;;1.83;;
21432;SDS011;18592;49.708;10.900;2023-05-09T11:26:16;1.88;;;1.77;;
21432;SDS011;18592;49.708;10.900;2023-05-09T11:28:26;1.80;;;1.70;;
21432;SDS011;18592;49.708;10.900;2023-05-09T11:30:37;2.20;;;2.00;;
21432;SDS011;18592;49.708;10.900;2023-05-09T11:34:51;2.17;;;1.85;;
21432;SDS011;18592;49.708;10.900;2023-05-09T11:36:53;2.20;;;2.00;;
21432;SDS011;18592;49.708;10.900;2023-05-09T11:39:09;2.10;;;1.90;;
21432;SDS011;18592;49.708;10.900;2023-05-09T11:41:11;2.90;;;1.95;;
21432;SDS011;18592;49.708;10.900;2023-05-09T11:43:13;2.05;;;1.85;;
21432;SDS011;18592;49.708;10.900;2023-05-09T11:45:17;2.92;;;1.90;;
21432;SDS011;18592;49.708;10.900;2023-05-09T11:47:19;1.80;;;1.70;;
21432;SDS011;18592;49.708;10.900;2023-05-09T11:49:24;3.97;;;1.80;;
21432;SDS011;18592;49.708;10.900;2023-05-09T11:51:28;3.97;;;2.10;;
21432;SDS011;18592;49.708;10.900;2023-05-09T11:53:32;2.47;;;1.70;;
21432;SDS011;18592;49.708;10.900;2023-05-09T11:55:36;2.95;;;1.85;;
21432;SDS011;18592;49.708;10.900;2023-05-09T11:57:38;1.77;;;1.58;;
21432;SDS011;18592;49.708;10.900;2023-05-09T11:59:45;1.67;;;1.58;;
21432;SDS011;18592;49.708;10.900;2023-05-09T12:01:48;3.58;;;1.80;;
21432;SDS011;18592;49.708;10.900;2023-05-09T12:03:50;4.47;;;1.80;;
21432;SDS011;18592;49.708;10.900;2023-05-09T12:05:53;4.50;;;1.70;;
21432;SDS011;18592;49.708;10.900;2023-05-09T12:07:56;2.92;;;1.83;;
21432;SDS011;18592;49.708;10.900;2023-05-09T12:10:09;1.80;;;1.48;;
21432;SDS011;18592;49.708;10.900;2023-05-09T12:12:13;2.55;;;1.75;;
21432;SDS011;18592;49.708;10.900;2023-05-09T12:14:31;2.38;;;1.90;;
21432;SDS011;18592;49.708;10.900;2023-05-09T12:16:37;1.83;;;1.60;;
21432;SDS011;18592;49.708;10.900;2023-05-09T12:18:48;2.08;;;1.70;;
21432;SDS011;18592;49.708;10.900;2023-05-09T12:20:51;1.77;;;1.55;;
21432;SDS011;18592;49.708;10.900;2023-05-09T12:22:54;1.80;;;1.70;;
21432;SDS011;18592;49.708;10.900;2023-05-09T12:24:58;1.67;;;1.58;;
21432;SDS011;18592;49.708;10.900;2023-05-09T12:27:04;1.92;;;1.70;;
21432;SDS011;18592;49.708;10.900;2023-05-09T12:29:10;2.45;;;1.80;;
21432;SDS011;18592;49.708;10.900;2023-05-09T12:31:11;1.98;;;1.88;;
21432;SDS011;18592;49.708;10.900;2023-05-09T12:33:13;2.03;;;1.80;;